Latest Weather Observations for Minlaton Airport

IDS60801

Issued at 8:51 am CDT Wednesday 23 October 2019 (issued every 10 minutes, with the page automatically refreshed every 10 minutes)

About weather observations | Map of weather stations | Latest weather observations for SA | Other Formats
Station Details ID: 022031 Name: MINLATON AERO Lat: -34.75 Lon: 137.53 Height: 32.0 m
Data from the previous 72 hours. | See also: Recent months at Minlaton Airport
Date/Time
CDT
Temp
°C
App
Temp
°C
Dew
Point
°C
Rel
Hum
%
Delta-T
°C
Wind Press
QNH
hPa
Press
MSL
hPa
Rain since
9am
mm
Dir  Spd
km/h
Gust
km/h
Spd
kts
Gust
kts
23/08:30am 24.0 21.1 2.8 25 10.2 NNW 7 9 4 5 1018.5 1018.5 0.0
23/08:00am 21.9 18.2 2.1 27 9.3 NNE 11 15 6 8 1018.3 1018.3 0.0
23/07:30am 19.8 15.2 1.3 29 8.4 NNE 15 20 8 11 1018.3 1018.3 0.0
23/07:00am 18.6 12.3 1.6 32 7.7 NE 24 28 13 15 1018.0 1018.0 0.0
23/06:30am 17.6 11.3 1.6 34 7.1 ENE 24 30 13 16 1017.8 1017.8 0.0
23/06:00am 17.9 11.6 1.8 34 7.2 ENE 24 28 13 15 1017.6 1017.6 0.0
23/05:30am 18.2 11.5 1.7 33 7.4 ENE 26 32 14 17 1017.4 1017.4 0.0
23/05:00am 18.4 12.1 1.4 32 7.6 ENE 24 30 13 16 1017.3 1017.3 0.0
23/04:30am 18.9 12.0 2.3 33 7.6 ENE 28 33 15 18 1017.2 1017.2 0.0
23/04:00am 18.9 12.0 2.3 33 7.6 ENE 28 33 15 18 1017.3 1017.3 0.0
23/03:30am 18.2 11.4 2.9 36 7.1 ENE 28 33 15 18 1017.4 1017.4 0.0
23/03:00am 17.0 11.1 4.0 42 6.1 ENE 24 30 13 16 1017.7 1017.7 0.0
23/02:30am 16.7 10.6 5.0 46 5.6 E 26 32 14 17 1017.8 1017.8 0.0
23/02:00am 16.4 10.8 5.4 48 5.3 E 24 30 13 16 1018.1 1018.1 0.0
23/01:30am 17.0 11.4 5.3 46 5.6 E 24 28 13 15 1018.5 1018.5 0.0
23/01:00am 16.6 10.9 4.9 46 5.6 E 24 26 13 14 1018.8 1018.8 0.0
23/12:30am 17.2 11.4 6.1 48 5.4 E 26 28 14 15 1019.1 1019.1 0.0
23/12:00am 17.1 11.5 7.2 52 4.9 E 26 30 14 16 1019.3 1019.3 0.0
 
Date/Time
CDT
Temp
°C
App
Temp
°C
Dew
Point
°C
Rel
Hum
%
Delta-T
°C
Wind Press
QNH
hPa
Press
MSL
hPa
Rain since
9am
mm
Dir  Spd
km/h
Gust
km/h
Spd
kts
Gust
kts
22/11:30pm 17.1 11.4 6.9 51 5.1 E 26 30 14 16 1019.5 1019.5 0.0
22/11:00pm 17.7 12.4 5.0 43 6.1 E 22 24 12 13 1019.8 1019.8 0.0
22/10:30pm 17.5 11.4 2.7 37 6.7 E 24 28 13 15 1020.1 1020.1 0.0
22/10:00pm 17.8 11.7 0.5 31 7.6 E 22 28 12 15 1020.1 1020.1 0.0
22/09:30pm 17.6 11.6 1.2 33 7.3 ESE 22 24 12 13 1020.2 1020.2 0.0
22/09:00pm 17.8 12.1 0.5 31 7.6 ESE 20 22 11 12 1020.0 1020.0 0.0
22/08:30pm 17.7 12.1 1.2 33 7.3 ESE 20 20 11 11 1020.0 1020.0 0.0
22/08:00pm 18.2 13.3 1.7 33 7.4 ESE 17 19 9 10 1019.8 1019.8 0.0
22/07:54pm 18.0 13.0 1.5 33 7.4 ESE 17 19 9 10 1019.7 1019.7 0.0
22/07:30pm 23.0 19.9 1.4 24 10.0 SSE 7 11 4 6 1019.7 1019.7 0.0
22/07:00pm 25.6 22.0 0.3 19 11.8 SW 9 13 5 7 1019.5 1019.5 0.0
22/06:30pm 27.2 23.9 0.1 17 12.7 WSW 7 11 4 6 1019.4 1019.4 0.0
22/06:00pm 27.9 23.3 -1.1 15 13.4 WSW 13 15 7 8 1019.4 1019.4 0.0
22/05:30pm 28.5 23.4 -1.6 14 13.8 WSW 15 19 8 10 1019.3 1019.3 0.0
22/05:00pm 28.3 22.3 -2.7 13 13.9 WSW 19 20 10 11 1019.6 1019.6 0.0
22/04:30pm 28.9 22.9 -3.3 12 14.4 WSW 19 22 10 12 1019.8 1019.8 0.0
22/04:00pm 29.4 23.8 -2.9 12 14.6 WSW 17 22 9 12 1020.0 1020.0 0.0
22/03:30pm 29.0 23.1 -2.2 13 14.2 W 19 24 10 13 1020.2 1020.2 0.0
22/03:00pm 29.6 23.6 -2.8 12 14.7 W 19 26 10 14 1020.7 1020.7 0.0
22/02:30pm 30.1 24.3 -1.3 13 14.6 WNW 19 26 10 14 1021.2 1021.2 0.0
22/02:00pm 29.8 24.3 0.4 15 14.1 WNW 19 24 10 13 1021.5 1021.5 0.0
22/01:30pm 28.9 23.1 -0.3 15 13.7 WNW 20 26 11 14 1021.9 1021.9 0.0
22/01:00pm 28.5 22.1 1.1 17 13.2 NW 24 28 13 15 1022.3 1022.3 0.0
22/12:30pm 28.4 22.0 1.0 17 13.1 NW 24 30 13 16 1022.6 1022.6 0.0
22/12:00pm 28.6 22.2 -1.5 14 13.8 NW 22 32 12 17 1023.0 1023.0 0.0
22/11:30am 29.3 23.4 -0.9 14 14.1 NW 20 28 11 15 1023.1 1023.1 0.0
22/11:00am 28.5 22.1 -1.6 14 13.8 NW 22 32 12 17 1023.1 1023.1 0.0
22/10:30am 28.8 23.1 -0.4 15 13.7 NNW 19 26 10 14 1023.2 1023.2 0.0
22/10:00am 27.2 21.8 -1.7 15 13.1 N 17 22 9 12 1023.3 1023.3 0.0
22/09:30am 25.3 19.7 1.4 21 11.3 NNE 20 28 11 15 1023.3 1023.3 0.0
22/09:00am 23.8 18.5 2.0 24 10.3 NE 19 24 10 13 1023.4 1023.4 0.0
22/08:30am 21.3 16.7 3.5 31 8.5 NE 17 20 9 11 1023.4 1023.4 0.0
22/08:00am 17.6 14.5 5.5 45 5.9 NNE 11 13 6 7 1023.2 1023.2 0.0
22/07:30am 14.9 10.3 5.4 53 4.5 ENE 19 22 10 12 1022.9 1022.9 0.0
22/07:00am 13.8 8.6 5.4 57 3.9 ENE 22 26 12 14 1022.5 1022.5 0.0
22/06:30am 12.9 8.0 5.1 59 3.6 E 20 24 11 13 1022.3 1022.3 0.0
22/06:00am 12.6 7.2 4.6 58 3.6 E 22 24 12 13 1022.1 1022.1 0.0
22/05:30am 13.5 8.5 4.4 54 4.2 ENE 20 24 11 13 1021.9 1021.9 0.0
22/05:00am 13.8 8.4 4.7 54 4.2 ENE 22 24 12 13 1021.9 1021.9 0.0
22/04:30am 14.7 9.3 4.7 51 4.6 ENE 22 26 12 14 1021.8 1021.8 0.0
22/04:00am 15.3 9.7 5.5 52 4.7 ENE 24 30 13 16 1021.9 1021.9 0.0
22/03:30am 14.9 9.2 6.5 57 4.1 ENE 26 30 14 16 1022.1 1022.1 0.0
22/03:00am 15.4 10.1 6.9 57 4.2 ENE 24 30 13 16 1022.2 1022.2 0.0
22/02:30am 14.8 9.9 7.1 60 3.8 ENE 22 26 12 14 1022.3 1022.3 0.0
22/02:00am 14.6 9.9 7.9 64 3.3 ENE 22 30 12 16 1022.6 1022.6 0.0
22/01:30am 12.9 8.5 8.8 76 2.0 E 22 26 12 14 1022.9 1022.9 0.0
22/01:00am 12.2 7.4 8.9 80 1.7 E 24 26 13 14 1023.2 1023.2 0.0
22/12:30am 12.6 7.9 9.1 79 1.8 E 24 28 13 15 1023.4 1023.4 0.0
22/12:00am 12.7 7.8 8.6 76 2.0 E 24 26 13 14 1023.6 1023.6 0.0
 
Date/Time
CDT
Temp
°C
App
Temp
°C
Dew
Point
°C
Rel
Hum
%
Delta-T
°C
Wind Press
QNH
hPa
Press
MSL
hPa
Rain since
9am
mm
Dir  Spd
km/h
Gust
km/h
Spd
kts
Gust
kts
21/11:30pm 13.1 8.1 8.2 72 2.4 E 24 28 13 15 1023.9 1023.9 0.0
21/11:00pm 13.8 8.9 7.1 64 3.3 E 22 26 12 14 1024.2 1024.2 0.0
21/10:30pm 13.3 8.9 5.0 57 3.8 ESE 17 22 9 12 1024.4 1024.4 0.0
21/10:00pm 13.6 8.6 4.7 55 4.1 ESE 20 22 11 12 1024.6 1024.6 0.0
21/09:30pm 14.8 9.7 4.2 49 4.9 ESE 20 24 11 13 1024.5 1024.5 0.0
21/09:00pm 14.7 9.7 4.7 51 4.6 ESE 20 22 11 12 1024.4 1024.4 0.0
21/08:30pm 14.9 10.1 5.7 54 4.4 ESE 20 22 11 12 1024.2 1024.2 0.0
21/08:00pm 15.4 11.2 5.9 53 4.6 ESE 17 19 9 10 1024.2 1024.2 0.0
21/07:30pm 17.3 13.3 4.9 44 5.9 E 15 15 8 8 1024.1 1024.1 0.0
21/07:00pm 20.0 16.3 4.5 36 7.5 ESE 13 17 7 9 1024.3 1024.3 0.0
21/06:30pm 20.5 17.7 3.3 32 8.1 W 7 9 4 5 1024.3 1024.3 0.0
21/06:00pm 22.8 18.9 1.2 24 10.0 WSW 11 15 6 8 1024.1 1024.1 0.0
21/05:30pm 23.3 18.9 0.4 22 10.4 WSW 13 20 7 11 1024.1 1024.1 0.0
21/05:00pm 23.3 18.7 1.6 24 10.2 W 15 20 8 11 1024.2 1024.2 0.0
21/04:30pm 24.1 18.7 1.1 22 10.7 W 19 20 10 11 1024.2 1024.2 0.0
21/04:00pm 24.2 19.4 2.4 24 10.4 W 17 20 9 11 1024.4 1024.4 0.0
21/03:30pm 25.6 20.7 1.7 21 11.4 W 17 22 9 12 1024.5 1024.5 0.0
21/03:00pm 25.1 20.7 0.6 20 11.4 WNW 13 20 7 11 1025.1 1025.1 0.0
21/02:30pm 24.0 18.8 2.2 24 10.3 WNW 19 26 10 14 1025.4 1025.4 0.0
21/02:00pm 25.0 20.3 3.0 24 10.7 WNW 17 24 9 13 1025.6 1025.6 0.0
21/01:30pm 22.0 17.9 6.3 36 7.9 WNW 17 20 9 11 1025.9 1025.9 0.0
21/01:00pm 24.2 20.6 5.1 29 9.6 W 13 19 7 10 1026.1 1026.1 0.0
21/12:30pm 22.1 17.9 5.9 35 8.1 WNW 17 20 9 11 1026.5 1026.5 0.0
21/12:00pm 23.8 19.7 4.2 28 9.6 NW 15 24 8 13 1026.7 1026.7 0.0
21/11:30am 23.3 20.1 5.2 31 9.0 NNW 11 17 6 9 1026.9 1026.9 0.0
21/11:00am 23.1 20.2 4.6 30 9.2 N 9 17 5 9 1027.2 1027.2 0.0
21/10:30am 21.6 18.3 4.7 33 8.2 NNE 11 20 6 11 1027.4 1027.4 0.0
21/10:00am 20.1 16.9 6.8 42 6.7 NNE 13 24 7 13 1027.6 1027.6 0.0
21/09:30am 18.3 14.5 7.7 50 5.4 ENE 17 20 9 11 1027.6 1027.6 0.0
21/09:00am 17.3 13.1 8.4 56 4.5 ENE 20 24 11 13 1027.7 1027.7 0.0
21/08:30am 15.0 10.5 8.7 66 3.2 ENE 22 33 12 18 1027.7 1027.7 0.0
21/08:00am 12.9 8.0 8.6 75 2.1 ENE 24 32 13 17 1027.5 1027.5 0.0
21/07:30am 10.9 5.9 8.1 83 1.4 ENE 24 30 13 16 1027.2 1027.2 0.0
21/07:00am 9.5 4.3 7.4 87 1.0 ENE 24 30 13 16 1026.9 1026.9 0.0
21/06:30am 8.9 3.7 7.2 89 0.8 E 24 28 13 15 1026.5 1026.5 0.0
21/06:00am 8.3 3.0 6.9 91 0.6 E 24 28 13 15 1026.4 1026.4 0.0
21/05:30am 8.8 3.6 7.4 91 0.7 E 24 32 13 17 1026.6 1026.6 0.0
21/05:00am 8.5 3.7 7.4 93 0.5 ENE 22 28 12 15 1026.6 1026.6 0.0
21/04:30am 7.2 2.7 6.3 94 0.4 ENE 19 22 10 12 1026.7 1026.7 0.0
21/04:00am 6.9 2.8 6.0 94 0.4 E 17 19 9 10 1027.1 1027.1 0.0
21/03:30am 4.9 1.3 3.2 89 0.7 ESE 11 13 6 7 1027.4 1027.4 0.0
21/03:00am 7.6 5.0 6.1 90 0.7 SE 9 11 5 6 1027.3 1027.3 0.0
21/02:30am 8.7 6.3 7.0 89 0.8 ESE 9 13 5 7 1027.0 1027.0 0.0
21/02:00am 9.5 6.5 7.8 89 0.8 E 13 17 7 9 1026.9 1026.9 0.0
21/01:30am 9.5 5.3 7.6 88 0.9 E 19 24 10 13 1027.0 1027.0 0.0
21/01:00am 9.7 4.2 7.6 87 1.0 E 26 32 14 17 1027.2 1027.2 0.0
21/12:30am 9.4 3.5 7.7 89 0.8 ESE 28 32 15 17 1027.6 1027.6 0.0
21/12:00am 9.2 4.8 7.6 90 0.8 ESE 20 26 11 14 1028.9 1028.8 0.0
 
Date/Time
CDT
Temp
°C
App
Temp
°C
Dew
Point
°C
Rel
Hum
%
Delta-T
°C
Wind Press
QNH
hPa
Press
MSL
hPa
Rain since
9am
mm
Dir  Spd
km/h
Gust
km/h
Spd
kts
Gust
kts
20/11:30pm 8.7 4.8 7.2 90 0.7 SE 17 20 9 11 1029.6 1029.5 0.0
20/11:00pm 7.8 3.7 6.3 90 0.7 SE 17 19 9 10 1029.9 1029.8 0.0
20/10:30pm 8.3 4.9 5.9 85 1.1 SSE 13 15 7 8 1030.0 1029.9 0.0
20/10:00pm 9.6 5.7 6.9 83 1.3 SE 17 20 9 11 1029.7 1029.6 0.0
20/09:30pm 10.3 6.0 7.2 81 1.5 SE 19 24 10 13 1029.4 1029.3 0.0
20/09:00pm 9.6 5.8 6.0 78 1.6 SE 15 20 8 11 1029.3 1029.2 0.0
20/08:30pm 10.5 6.6 5.5 71 2.3 SE 15 19 8 10 1028.9 1028.8 0.0
20/08:00pm 12.2 8.0 5.6 64 3.1 SE 17 20 9 11 1028.5 1028.4 0.0
20/07:30pm 14.2 9.6 5.6 56 4.0 SE 19 26 10 14 1028.1 1028.1 0.0
20/07:00pm 16.1 11.5 5.7 50 5.0 SE 19 26 10 14 1027.9 1027.9 0.0
20/06:30pm 17.5 12.5 4.8 43 6.0 SE 20 28 11 15 1027.7 1027.7 0.0
20/06:00pm 18.6 14.3 5.1 41 6.5 SSE 17 26 9 14 1027.5 1027.5 0.0
20/05:30pm 19.2 15.1 6.0 42 6.5 SSE 17 24 9 13 1027.5 1027.5 0.0
20/05:00pm 20.7 18.0 7.3 42 6.9 SSE 11 20 6 11 1027.4 1027.4 0.0
20/04:30pm 20.2 15.5 6.2 40 7.0 SW 20 32 11 17 1027.4 1027.4 0.0
20/04:00pm 20.5 16.3 8.2 45 6.4 WSW 20 30 11 16 1027.4 1027.4 0.0
20/03:30pm 19.2 13.4 7.9 48 5.8 WSW 28 35 15 19 1027.5 1027.5 0.0
20/03:00pm 19.8 14.4 8.2 47 6.0 W 26 33 14 18 1027.7 1027.7 0.0
20/02:30pm 20.1 14.4 6.5 41 6.8 WSW 26 33 14 18 1027.8 1027.8 0.0
20/02:00pm 20.1 14.9 5.7 39 7.1 W 22 28 12 15 1028.1 1028.1 0.0
20/01:30pm 19.4 14.2 5.5 40 6.8 W 22 30 12 16 1028.1 1028.1 0.0
20/01:00pm 18.9 14.1 5.7 42 6.5 W 20 28 11 15 1028.4 1028.3 0.0
20/12:30pm 18.3 12.7 5.5 43 6.2 W 24 30 13 16 1028.7 1028.6 0.0
20/12:00pm 18.2 14.5 6.4 46 5.8 W 15 24 8 13 1029.0 1028.9 0.0
20/11:30am 17.5 12.7 5.8 46 5.7 W 20 28 11 15 1029.3 1029.2 0.0
20/11:00am 17.5 14.1 5.8 46 5.7 WSW 13 22 7 12 1029.6 1029.5 0.0
20/10:30am 17.1 14.7 5.1 45 5.7 SE 7 15 4 8 1029.8 1029.7 0.0
20/10:00am 16.0 12.8 5.3 49 5.1 SE 11 20 6 11 1029.8 1029.7 0.0
20/09:30am 15.1 11.5 4.8 50 4.8 SE 13 19 7 10 1029.8 1029.7 0.0
20/09:00am 14.7 12.1 6.0 56 4.1 SSE 9 15 5 8 1029.8 1029.7 0.0

Other formats

Comma delimited format used in spreadsheet applications
http://www.bom.gov.au/fwo/IDS60801/IDS60801.95659.axf

JavaScript Object Notation format (JSON) in row-major order
http://www.bom.gov.au/fwo/IDS60801/IDS60801.95659.json

Data quality

Most of these data are generated automatically and are frequently updated. Quality checks on data are not normally performed. It is possible for incorrect values to appear. Refer to information at About Latest Weather Observations and please check the disclaimer before using these data.